Time;durP1;ratioP1;P1;durP2;ratioP2;P2;SDS_P1;SDS_P2;PMS_P1;PMS_P2;Temp;Humidity;BMP_temperature;BMP_pressure;BME280_temperature;BME280_humidity;BME280_pressure;Samples;Min_cycle;Max_cycle;Signal;HPM_P1;HPM_P2
2022/11/26 00:00:30;;;;;;;1999.90;999.90;;;;;;;6.55;100.00;95056.53;4976282;28;20179;-61
2022/11/26 00:02:56;;;;;;;1999.90;999.90;;;;;;;6.41;100.00;95049.16;4976889;28;20239;-60
2022/11/26 00:05:22;;;;;;;1999.90;999.90;;;;;;;6.51;100.00;95047.59;4976723;28;20249;-60
2022/11/26 00:07:54;;;;;;;1999.90;999.90;;;;;;;6.40;100.00;95046.81;4976833;28;20205;-61
2022/11/26 00:10:24;;;;;;;1999.90;999.90;;;;;;;6.41;100.00;95042.97;4977344;28;20179;-60
2022/11/26 00:12:50;;;;;;;1999.90;999.90;;;;;;;6.56;100.00;95049.97;4976713;28;20250;-61
2022/11/26 00:15:19;;;;;;;1999.90;999.90;;;;;;;6.56;100.00;95049.97;4976669;28;20265;-60
2022/11/26 00:17:44;;;;;;;1999.90;999.90;;;;;;;6.45;100.00;95054.59;4976806;28;20179;-61
2022/11/26 00:20:10;;;;;;;1999.90;999.90;;;;;;;6.49;100.00;95049.94;4976861;28;20179;-66
2022/11/26 00:22:49;;;;;;;1999.90;999.90;;;;;;;6.48;100.00;95054.59;4977286;28;20166;-66
2022/11/26 00:25:21;;;;;;;1999.90;999.90;;;;;;;6.43;100.00;95063.13;4977098;28;20198;-66
2022/11/26 00:27:48;;;;;;;1999.90;999.90;;;;;;;6.36;100.00;95068.50;4976597;28;20209;-67
2022/11/26 00:30:18;;;;;;;1999.90;999.90;;;;;;;6.24;100.00;95081.66;4976898;28;20182;-66
2022/11/26 00:32:44;;;;;;;1999.90;999.90;;;;;;;6.22;100.00;95089.38;4976397;28;20190;-66
2022/11/26 00:35:09;;;;;;;1999.90;999.90;;;;;;;6.15;100.00;95094.78;4976335;28;20232;-63
2022/11/26 00:37:39;;;;;;;1999.90;999.90;;;;;;;6.11;100.00;95096.69;4976837;28;20235;-62
2022/11/26 00:40:06;;;;;;;1999.90;999.90;;;;;;;6.25;100.00;95094.03;4976537;28;20182;-62
2022/11/26 00:42:31;;;;;;;1999.90;999.90;;;;;;;6.28;100.00;95104.91;4976024;28;20191;-62
2022/11/26 00:44:57;;;;;;;1999.90;999.90;;;;;;;6.27;100.00;95111.47;4976067;28;20183;-62
2022/11/26 00:47:22;;;;;;;1999.90;999.90;;;;;;;6.10;100.00;95114.13;4976036;28;20220;-62
2022/11/26 00:49:47;;;;;;;1999.90;999.90;;;;;;;6.07;100.00;95112.16;4976839;28;20175;-63
2022/11/26 00:52:33;;;;;;;1999.90;999.90;;;;;;;6.08;100.00;95111.78;4975966;28;20245;-65
2022/11/26 00:55:02;;;;;;;1999.90;999.90;;;;;;;6.08;100.00;95109.06;4975837;28;20310;-60
2022/11/26 00:57:27;;;;;;;1999.90;999.90;;;;;;;6.08;100.00;95106.38;4975828;28;20187;-61
2022/11/26 00:59:52;;;;;;;1999.90;999.90;;;;;;;6.20;100.00;95113.41;4975551;28;20583;-63
2022/11/26 01:02:18;;;;;;;1999.90;999.90;;;;;;;6.23;100.00;95113.38;4975987;28;20179;-62
2022/11/26 01:04:43;;;;;;;1999.90;999.90;;;;;;;6.06;100.00;95113.34;4975604;28;20201;-63
2022/11/26 01:07:10;;;;;;;1999.90;999.90;;;;;;;6.08;100.00;95113.72;4975400;28;20190;-63
2022/11/26 01:09:35;;;;;;;1999.90;999.90;;;;;;;6.07;100.00;95125.72;4975964;28;20274;-62
2022/11/26 01:12:00;;;;;;;1999.90;999.90;;;;;;;6.22;100.00;95116.47;4975771;28;20269;-62
2022/11/26 01:14:26;;;;;;;1999.90;999.90;;;;;;;6.10;100.00;95130.38;4976042;28;20236;-63
2022/11/26 01:16:53;;;;;;;1999.90;999.90;;;;;;;6.08;100.00;95129.97;4975556;28;20277;-63
2022/11/26 01:19:19;;;;;;;1999.90;999.90;;;;;;;6.09;100.00;95126.13;4975558;28;20183;-63
2022/11/26 01:21:44;;;;;;;1999.90;999.90;;;;;;;6.11;100.00;95126.50;4975529;28;20187;-63
2022/11/26 01:24:09;;;;;;;1999.90;999.90;;;;;;;6.07;100.00;95125.72;4975472;28;20236;-63
2022/11/26 01:26:43;;;;;;;1999.90;999.90;;;;;;;6.12;100.00;95128.09;4975743;28;20175;-63
2022/11/26 01:29:19;;;;;;;1999.90;999.90;;;;;;;6.12;100.00;95119.94;4975805;28;20206;-63
2022/11/26 01:31:45;;;;;;;1999.90;999.90;;;;;;;6.31;100.00;95119.63;4975039;28;20174;-61
2022/11/26 01:34:10;;;;;;;1999.90;999.90;;;;;;;6.33;100.00;95128.13;4975741;28;20179;-61
2022/11/26 01:36:38;;;;;;;1999.90;999.90;;;;;;;6.17;100.00;95133.13;4975174;28;20178;-61
2022/11/26 01:39:12;;;;;;;1999.90;999.90;;;;;;;6.15;100.00;95138.94;4975236;28;20218;-61
2022/11/26 01:42:05;;;;;;;1999.90;999.90;;;;;;;6.18;100.00;95137.38;4975903;28;20173;-61
2022/11/26 01:44:34;;;;;;;1999.90;999.90;;;;;;;6.18;100.00;95142.81;4975234;28;20180;-61
2022/11/26 01:47:00;;;;;;;1999.90;999.90;;;;;;;6.21;100.00;95147.47;4975080;28;20186;-61
2022/11/26 01:49:32;;;;;;;1999.90;999.90;;;;;;;6.23;100.00;95145.16;4974677;28;20241;-61
2022/11/26 01:52:08;;;;;;;1999.90;999.90;;;;;;;6.21;100.00;95169.16;4975609;28;20178;-61
2022/11/26 01:54:36;;;;;;;1999.90;999.90;;;;;;;6.21;100.00;95169.94;4976532;28;20274;-60
2022/11/26 01:57:23;;;;;;;1999.90;999.90;;;;;;;6.22;100.00;95166.06;4978483;28;20182;-61
2022/11/26 01:59:55;;;;;;;1999.90;999.90;;;;;;;6.24;100.00;95171.09;4978647;28;20263;-61
2022/11/26 02:02:23;;;;;;;1999.90;999.90;;;;;;;6.23;100.00;95178.47;4978089;28;20260;-61
2022/11/26 02:04:59;;;;;;;1999.90;999.90;;;;;;;6.22;100.00;95176.13;4977992;28;20202;-62
2022/11/26 02:07:25;;;;;;;1999.90;999.90;;;;;;;6.22;100.00;95181.53;4978615;28;20209;-62
2022/11/26 02:09:50;;;;;;;1999.90;999.90;;;;;;;6.23;100.00;95188.53;4977985;28;20184;-68
2022/11/26 02:12:15;;;;;;;1999.90;999.90;;;;;;;6.20;100.00;95186.59;4977858;28;20182;-67
2022/11/26 02:14:42;;;;;;;1999.90;999.90;;;;;;;6.20;100.00;95186.59;4978024;28;20187;-66
2022/11/26 02:17:46;;;;;;;1999.90;999.90;;;;;;;6.22;100.00;95195.09;4978558;28;20182;-68
2022/11/26 02:20:20;;;;;;;1999.90;999.90;;;;;;;6.28;100.00;95188.16;4919633;29;20245;-67
2022/11/26 02:22:48;;;;;;;1999.90;999.90;;;;;;;6.27;100.00;95190.09;4921413;29;20188;-67
2022/11/26 02:25:32;;;;;;;1999.90;999.90;;;;;;;6.26;100.00;95193.97;4954699;28;20189;-60
2022/11/26 02:28:09;;;;;;;1999.90;999.90;;;;;;;6.24;100.00;95211.78;4982172;28;20208;-63
2022/11/26 02:30:38;;;;;;;1999.90;999.90;;;;;;;6.23;100.00;95215.66;4982116;28;20586;-63
2022/11/26 02:33:19;;;;;;;1999.90;999.90;;;;;;;6.21;100.00;95223.38;4981655;28;20172;-62
2022/11/26 02:35:55;;;;;;;1999.90;999.90;;;;;;;6.20;100.00;95232.66;4982057;28;20173;-63
2022/11/26 02:38:29;;;;;;;1999.90;999.90;;;;;;;6.22;100.00;95230.34;4982125;28;20184;-63
2022/11/26 02:40:54;;;;;;;1999.90;999.90;;;;;;;6.19;100.00;95236.50;4982116;28;20179;-64
2022/11/26 02:43:20;;;;;;;1999.90;999.90;;;;;;;6.19;100.00;95231.09;4981499;28;20173;-66
2022/11/26 02:45:51;;;;;;;1999.90;999.90;;;;;;;6.19;100.00;95236.50;4981603;28;20213;-66
2022/11/26 02:48:20;;;;;;;1999.90;999.90;;;;;;;6.21;100.00;95239.63;4981962;28;20206;-63
2022/11/26 02:50:50;;;;;;;1999.90;999.90;;;;;;;6.20;100.00;95243.50;4981906;28;20189;-64
2022/11/26 02:53:20;;;;;;;1999.90;999.90;;;;;;;6.18;100.00;95243.09;4981645;28;20191;-63
2022/11/26 02:55:49;;;;;;;1999.90;999.90;;;;;;;6.21;100.00;95250.47;4981054;28;20269;-62
2022/11/26 02:58:16;;;;;;;1999.90;999.90;;;;;;;6.17;100.00;95257.81;4981293;28;20381;-64
2022/11/26 03:00:42;;;;;;;1999.90;999.90;;;;;;;6.15;100.00;95260.13;4981536;28;20177;-63
2022/11/26 03:03:21;;;;;;;1999.90;999.90;;;;;;;6.16;100.00;95267.13;4981519;28;20184;-60
2022/11/26 03:05:47;;;;;;;1999.90;999.90;;;;;;;6.17;100.00;95271.38;4981927;28;20174;-62
2022/11/26 03:08:12;;;;;;;1999.90;999.90;;;;;;;6.19;100.00;95288.03;4981458;28;20202;-63
2022/11/26 03:10:38;;;;;;;1999.90;999.90;;;;;;;6.32;100.00;95278.44;4981189;28;20192;-62
2022/11/26 03:13:03;;;;;;;1999.90;999.90;;;;;;;6.35;100.00;95288.53;4981729;28;20182;-63
2022/11/26 03:15:28;;;;;;;1999.90;999.90;;;;;;;6.38;100.00;95293.19;4981159;28;20252;-63
2022/11/26 03:17:54;;;;;;;1999.90;999.90;;;;;;;6.37;100.00;95307.91;4981340;28;20181;-63
2022/11/26 03:20:19;;;;;;;1999.90;999.90;;;;;;;6.24;100.00;95320.22;4980956;28;20184;-63
2022/11/26 03:22:44;;;;;;;1999.90;999.90;;;;;;;6.23;100.00;95329.50;4980874;28;20222;-62
2022/11/26 03:25:10;;;;;;;1999.90;999.90;;;;;;;6.23;100.00;95329.50;4980697;28;20240;-62
2022/11/26 03:27:35;;;;;;;1999.90;999.90;;;;;;;6.35;100.00;95327.25;4980823;28;20288;-61
2022/11/26 03:30:02;;;;;;;1999.90;999.90;;;;;;;6.18;100.00;95327.13;4980689;28;20183;-62
2022/11/26 03:32:27;;;;;;;1999.90;999.90;;;;;;;6.21;100.00;95331.81;4980338;28;20183;-62
2022/11/26 03:34:53;;;;;;;1999.90;999.90;;;;;;;6.35;100.00;95326.50;4980498;28;20233;-62
2022/11/26 03:37:18;;;;;;;1999.90;999.90;;;;;;;6.37;100.00;95329.59;4981132;28;20184;-60
2022/11/26 03:39:44;;;;;;;1999.90;999.90;;;;;;;6.37;100.00;95340.44;4980507;28;20248;-61
2022/11/26 03:42:09;;;;;;;1999.90;999.90;;;;;;;6.39;100.00;95354.41;4980330;28;20192;-62
2022/11/26 03:44:35;;;;;;;1999.90;999.90;;;;;;;6.25;100.00;95370.56;4980138;28;20186;-62
2022/11/26 03:47:04;;;;;;;1999.90;999.90;;;;;;;6.23;100.00;95381.03;4980337;28;20186;-62
2022/11/26 03:49:29;;;;;;;1999.90;999.90;;;;;;;6.38;100.00;95390.81;4980682;28;20213;-62
2022/11/26 03:51:54;;;;;;;1999.90;999.90;;;;;;;6.39;100.00;95397.81;4980774;28;20190;-62
2022/11/26 03:54:20;;;;;;;1999.90;999.90;;;;;;;6.39;100.00;95424.91;4979930;28;20261;-62
2022/11/26 03:56:45;;;;;;;1999.90;999.90;;;;;;;6.28;100.00;95424.06;4979721;28;20233;-63
2022/11/26 03:59:10;;;;;;;1999.90;999.90;;;;;;;6.26;100.00;95426.34;4980225;28;20186;-64
2022/11/26 04:01:36;;;;;;;1999.90;999.90;;;;;;;6.44;100.00;95440.84;4980255;28;20176;-64
2022/11/26 04:04:04;;;;;;;1999.90;999.90;;;;;;;6.44;100.00;95457.09;4980066;28;20202;-63
2022/11/26 04:06:29;;;;;;;1999.90;999.90;;;;;;;6.39;100.00;95462.88;4980062;28;20364;-63
2022/11/26 04:08:55;;;;;;;1999.90;999.90;;;;;;;6.41;100.00;95477.63;4979995;28;20217;-64
2022/11/26 04:11:20;;;;;;;1999.90;999.90;;;;;;;6.43;100.00;95474.53;4980516;28;20181;-63
2022/11/26 04:13:45;;;;;;;1999.90;999.90;;;;;;;6.42;100.00;95486.56;4980389;28;20180;-63
2022/11/26 04:16:11;;;;;;;1999.90;999.90;;;;;;;6.30;100.00;95493.03;4979872;28;20183;-68
2022/11/26 04:18:36;;;;;;;1999.90;999.90;;;;;;;6.30;100.00;95497.66;4979929;28;20178;-66
2022/11/26 04:21:05;;;;;;;1999.90;999.90;;;;;;;6.40;100.00;95494.25;4980147;28;20190;-65
2022/11/26 04:23:31;;;;;;;1999.90;999.90;;;;;;;6.46;100.00;95496.28;4979822;28;20191;-66
2022/11/26 04:25:56;;;;;;;1999.90;999.90;;;;;;;6.50;100.00;95507.16;4979816;28;20185;-65
2022/11/26 04:28:21;;;;;;;1999.90;999.90;;;;;;;6.49;100.00;95516.44;4980163;28;20210;-67
2022/11/26 04:30:46;;;;;;;1999.90;999.90;;;;;;;6.45;100.00;95521.06;4979209;28;20180;-65
2022/11/26 04:33:12;;;;;;;1999.90;999.90;;;;;;;6.51;100.00;95524.97;4979673;28;20185;-69
2022/11/26 04:35:38;;;;;;;1999.90;999.90;;;;;;;6.52;100.00;95521.91;4979786;28;20270;-62
2022/11/26 04:38:03;;;;;;;1999.90;999.90;;;;;;;6.41;100.00;95540.00;4979857;28;20181;-63
2022/11/26 04:40:28;;;;;;;1999.90;999.90;;;;;;;6.30;100.00;95547.25;4979163;28;20186;-63
2022/11/26 04:42:54;;;;;;;1999.90;999.90;;;;;;;6.30;100.00;95541.03;4979863;28;20274;-63
2022/11/26 04:45:19;;;;;;;1999.90;999.90;;;;;;;6.28;100.00;95543.34;4979462;28;20178;-63
2022/11/26 04:47:45;;;;;;;1999.90;999.90;;;;;;;6.31;100.00;95537.19;4979867;28;20230;-63
2022/11/26 04:50:11;;;;;;;1999.90;999.90;;;;;;;6.31;100.00;95526.34;4979179;28;20179;-63
2022/11/26 04:52:36;;;;;;;1999.90;999.90;;;;;;;6.29;100.00;95534.06;4979191;28;20198;-66
2022/11/26 04:55:01;;;;;;;1999.90;999.90;;;;;;;6.27;100.00;95530.97;4978923;28;20226;-68
2022/11/26 04:57:27;;;;;;;1999.90;999.90;;;;;;;6.26;100.00;95526.66;4979674;28;20171;-67
2022/11/26 04:59:52;;;;;;;1999.90;999.90;;;;;;;6.25;100.00;95522.41;4979133;28;20242;-69
2022/11/26 05:02:17;;;;;;;1999.90;999.90;;;;;;;6.25;100.00;95522.41;4979093;28;20182;-68
2022/11/26 05:04:43;;;;;;;1999.90;999.90;;;;;;;6.23;100.00;95513.88;4978609;28;20679;-68
2022/11/26 05:07:08;;;;;;;1999.90;999.90;;;;;;;6.23;100.00;95514.63;4979187;28;20187;-67
2022/11/26 05:09:34;;;;;;;1999.90;999.90;;;;;;;6.23;100.00;95519.28;4978785;28;20202;-69
2022/11/26 05:11:59;;;;;;;1999.90;999.90;;;;;;;6.17;100.00;95505.28;4979586;28;20259;-66
2022/11/26 05:14:24;;;;;;;1999.90;999.90;;;;;;;6.15;100.00;95480.47;4978755;28;20181;-66
2022/11/26 05:16:50;;;;;;;1999.90;999.90;;;;;;;6.13;100.00;95474.63;4978840;28;20179;-65
2022/11/26 05:19:15;;;;;;;1999.90;999.90;;;;;;;6.14;100.00;95470.00;4979211;28;20190;-65
2022/11/26 05:21:41;;;;;;;1999.90;999.90;;;;;;;6.16;100.00;95465.75;4979429;28;20173;-65
2022/11/26 05:24:06;;;;;;;1999.90;999.90;;;;;;;6.18;100.00;95455.34;4978588;28;20172;-66
2022/11/26 05:26:32;;;;;;;1999.90;999.90;;;;;;;6.19;100.00;95456.88;4979416;28;20232;-66
2022/11/26 05:28:57;;;;;;;1999.90;999.90;;;;;;;6.20;100.00;95449.53;4978346;28;20286;-65
2022/11/26 05:31:22;;;;;;;1999.90;999.90;;;;;;;6.17;100.00;95448.38;4979040;28;20213;-62
2022/11/26 05:33:48;;;;;;;1999.90;999.90;;;;;;;6.16;100.00;95443.31;4978694;28;20174;-65
2022/11/26 05:36:13;;;;;;;1999.90;999.90;;;;;;;6.17;100.00;95439.44;4978184;28;20200;-65
2022/11/26 05:38:39;;;;;;;1999.90;999.90;;;;;;;6.14;100.00;95442.91;4979058;28;20513;-65
2022/11/26 05:41:04;;;;;;;1999.90;999.90;;;;;;;6.16;100.00;95437.91;4979153;28;20178;-65
2022/11/26 05:43:29;;;;;;;1999.90;999.90;;;;;;;6.10;100.00;95445.59;4978949;28;20189;-64
2022/11/26 05:45:54;;;;;;;1999.90;999.90;;;;;;;6.13;100.00;95430.50;4978705;28;20186;-65
2022/11/26 05:48:20;;;;;;;1999.90;999.90;;;;;;;6.15;100.00;95425.47;4978723;28;20238;-61
2022/11/26 05:50:45;;;;;;;1999.90;999.90;;;;;;;6.16;100.00;95422.38;4978228;28;20179;-65
2022/11/26 05:53:11;;;;;;;1999.90;999.90;;;;;;;6.19;100.00;95426.28;4977848;28;20270;-64
2022/11/26 05:55:36;;;;;;;1999.90;999.90;;;;;;;6.18;100.00;95422.03;4977768;28;20225;-64
2022/11/26 05:58:02;;;;;;;1999.90;999.90;;;;;;;6.23;100.00;95427.13;4977017;28;20219;-65
2022/11/26 06:00:28;;;;;;;1999.90;999.90;;;;;;;6.18;100.00;95425.53;4995541;28;20177;-64
2022/11/26 06:02:53;;;;;;;1999.90;999.90;;;;;;;6.23;100.00;95424.41;4978023;28;20183;-66
2022/11/26 06:05:19;;;;;;;1999.90;999.90;;;;;;;6.22;100.00;95423.63;4978010;28;20195;-63
2022/11/26 06:07:44;;;;;;;1999.90;999.90;;;;;;;6.26;100.00;95424.41;4978044;28;20206;-62
2022/11/26 06:10:10;;;;;;;1999.90;999.90;;;;;;;6.20;100.00;95430.56;4978038;28;20183;-63
2022/11/26 06:12:35;;;;;;;1999.90;999.90;;;;;;;6.26;100.00;95423.63;4995267;28;20248;-64
2022/11/26 06:15:01;;;;;;;1999.90;999.90;;;;;;;6.29;100.00;95420.19;4977582;28;20199;-63
2022/11/26 06:17:29;;;;;;;1999.90;999.90;;;;;;;6.27;100.00;95434.09;4977954;28;20552;-63
2022/11/26 06:19:54;;;;;;;1999.90;999.90;;;;;;;6.29;100.00;95439.16;4977928;28;20274;-63
2022/11/26 06:22:20;;;;;;;1999.90;999.90;;;;;;;6.29;100.00;95447.28;4978176;28;20213;-64
2022/11/26 06:24:45;;;;;;;1999.90;999.90;;;;;;;6.30;100.00;95455.06;4978607;28;20186;-61
2022/11/26 06:27:10;;;;;;;1999.90;999.90;;;;;;;6.34;100.00;95461.28;4978616;28;20178;-63
2022/11/26 06:29:39;;;;;;;1999.90;999.90;;;;;;;6.36;100.00;95469.84;4978158;28;20218;-63
2022/11/26 06:32:04;;;;;;;1999.90;999.90;;;;;;;6.45;100.00;95483.09;4977780;28;20183;-62
2022/11/26 06:34:30;;;;;;;1999.90;999.90;;;;;;;6.47;100.00;95491.63;4977890;28;20179;-63
2022/11/26 06:36:55;;;;;;;1999.90;999.90;;;;;;;6.46;100.00;95501.72;4977536;28;20664;-64
2022/11/26 06:39:20;;;;;;;1999.90;999.90;;;;;;;6.48;100.00;95499.38;4977611;28;20227;-64
2022/11/26 06:41:45;;;;;;;1999.90;999.90;;;;;;;6.46;100.00;95511.75;4977724;28;20183;-64
2022/11/26 06:44:11;;;;;;;1999.90;999.90;;;;;;;6.45;100.00;95518.34;4977749;28;20233;-62
2022/11/26 06:46:39;;;;;;;1999.90;999.90;;;;;;;6.37;100.00;95532.97;4977395;28;20179;-65
2022/11/26 06:49:05;;;;;;;1999.90;999.90;;;;;;;6.38;100.00;95548.13;4977481;28;20203;-67
2022/11/26 06:51:31;;;;;;;1999.90;999.90;;;;;;;6.39;100.00;95557.81;4977362;28;20179;-67
2022/11/26 06:53:56;;;;;;;1999.90;999.90;;;;;;;6.38;100.00;95572.53;4977918;28;20171;-67
2022/11/26 06:56:22;;;;;;;1999.90;999.90;;;;;;;6.39;100.00;95583.00;4977664;28;20304;-70
2022/11/26 06:58:48;;;;;;;1999.90;999.90;;;;;;;6.38;100.00;95596.94;4977693;28;20184;-67
2022/11/26 07:01:19;;;;;;;1999.90;999.90;;;;;;;6.38;100.00;95599.63;4977703;28;20185;-63
2022/11/26 07:03:45;;;;;;;1999.90;999.90;;;;;;;6.39;100.00;95598.47;4978359;28;20246;-63
2022/11/26 07:06:25;;;;;;;1999.90;999.90;;;;;;;6.36;100.00;95616.28;4977882;28;20186;-63
2022/11/26 07:08:53;;;;;;;1999.90;999.90;;;;;;;6.41;100.00;95617.88;4979465;28;20217;-64
2022/11/26 07:11:19;;;;;;;1999.90;999.90;;;;;;;6.40;100.00;95627.16;4980751;28;20189;-63
2022/11/26 07:13:45;;;;;;;1999.90;999.90;;;;;;;6.43;100.00;95626.41;4981087;28;20181;-63
2022/11/26 07:16:11;;;;;;;1999.90;999.90;;;;;;;6.46;100.00;95636.53;4980626;28;20178;-63
2022/11/26 07:18:37;;;;;;;1999.90;999.90;;;;;;;6.45;100.00;95645.81;4980953;28;20175;-65
2022/11/26 07:21:04;;;;;;;1999.90;999.90;;;;;;;6.43;100.00;95650.81;4980876;28;20193;-66
2022/11/26 07:23:30;;;;;;;1999.90;999.90;;;;;;;6.41;100.00;95659.34;4980995;28;20180;-62
2022/11/26 07:25:58;;;;;;;1999.90;999.90;;;;;;;6.47;100.00;95670.63;4981018;28;20193;-62
2022/11/26 07:28:24;;;;;;;1999.90;999.90;;;;;;;6.40;100.00;95684.09;4980607;28;20211;-62
2022/11/26 07:30:49;;;;;;;1999.90;999.90;;;;;;;6.42;100.00;95695.38;4981201;28;20182;-62
2022/11/26 07:33:15;;;;;;;1999.90;999.90;;;;;;;6.41;100.00;95699.25;4980532;28;20182;-63
2022/11/26 07:35:43;;;;;;;1999.90;999.90;;;;;;;6.47;100.00;95703.19;4980585;28;20182;-62
2022/11/26 07:38:08;;;;;;;1999.90;999.90;;;;;;;6.44;100.00;95698.50;4981134;28;20187;-66
2022/11/26 07:40:33;;;;;;;1999.90;999.90;;;;;;;6.40;100.00;95714.72;4981151;28;20183;-66
2022/11/26 07:43:02;;;;;;;1999.90;999.90;;;;;;;6.41;100.00;95710.09;4979985;28;20273;-67
2022/11/26 07:45:27;;;;;;;1999.90;999.90;;;;;;;6.37;100.00;95726.31;4980391;28;20178;-67
2022/11/26 07:47:52;;;;;;;1999.90;999.90;;;;;;;6.38;100.00;95732.53;4980481;28;20228;-66
2022/11/26 07:50:18;;;;;;;1999.90;999.90;;;;;;;6.40;100.00;95733.72;4980607;28;20275;-67
2022/11/26 07:52:43;;;;;;;1999.90;999.90;;;;;;;6.42;100.00;95744.19;4981088;28;20270;-67
2022/11/26 07:55:09;;;;;;;1999.90;999.90;;;;;;;6.51;100.00;95748.19;4979735;28;20317;-67
2022/11/26 07:57:34;;;;;;;1999.90;999.90;;;;;;;6.57;100.00;95754.09;4980403;28;20173;-61
2022/11/26 07:59:59;;;;;;;1999.90;999.90;;;;;;;6.63;100.00;95758.03;4980027;28;20175;-66
2022/11/26 08:02:24;;;;;;;1999.90;999.90;;;;;;;6.66;100.00;95765.41;4979931;28;20173;-66
2022/11/26 08:04:50;;;;;;;1999.90;999.90;;;;;;;6.72;100.00;95780.25;4979647;28;20192;-66
2022/11/26 08:07:15;;;;;;;1999.90;999.90;;;;;;;6.72;100.00;95781.03;4980596;28;20452;-67
2022/11/26 08:09:40;;;;;;;1999.90;999.90;;;;;;;6.74;100.00;95783.38;4980264;28;20214;-66
2022/11/26 08:12:06;;;;;;;1999.90;999.90;;;;;;;6.76;100.00;95808.19;4980033;28;20182;-66
2022/11/26 08:14:31;;;;;;;1999.90;999.90;;;;;;;6.82;100.00;95809.44;4980094;28;20187;-61
2022/11/26 08:16:57;;;;;;;1999.90;999.90;;;;;;;6.86;100.00;95821.13;4979629;28;20172;-60
2022/11/26 08:19:23;;;;;;;1999.90;999.90;;;;;;;6.89;100.00;95815.75;4996514;28;20180;-60
2022/11/26 08:21:48;;;;;;;1999.90;999.90;;;;;;;6.89;100.00;95829.31;4979881;28;20186;-60
2022/11/26 08:24:16;;;;;;;1999.90;999.90;;;;;;;6.81;100.00;95846.66;4979605;28;20176;-60
2022/11/26 08:26:42;;;;;;;1999.90;999.90;;;;;;;6.81;100.00;95849.38;4979769;28;20181;-60
2022/11/26 08:29:07;;;;;;;1999.90;999.90;;;;;;;6.84;100.00;95858.69;4979391;28;20196;-60
2022/11/26 08:31:33;;;;;;;1999.90;999.90;;;;;;;6.84;100.00;95875.00;4979464;28;20241;-60
2022/11/26 08:33:59;;;;;;;1999.90;999.90;;;;;;;6.80;100.00;95885.81;4979083;28;20176;-63
2022/11/26 08:36:25;;;;;;;1999.90;999.90;;;;;;;6.84;100.00;95902.13;4979491;28;20181;-62
2022/11/26 08:38:51;;;;;;;1999.90;999.90;;;;;;;7.00;100.00;95916.34;4979462;28;20208;-62
2022/11/26 08:41:16;;;;;;;1999.90;999.90;;;;;;;7.22;100.00;95922.81;4979762;28;20179;-64
2022/11/26 08:43:41;;;;;;;1999.90;999.90;;;;;;;7.30;100.00;95947.00;4979879;28;20177;-64
2022/11/26 08:46:09;;;;;;;1999.90;999.90;;;;;;;7.48;100.00;95975.19;4979243;28;20183;-64
2022/11/26 08:48:34;;;;;;;1999.90;999.90;;;;;;;7.65;100.00;95996.34;4978925;28;20214;-63
2022/11/26 08:51:02;;;;;;;1999.90;999.90;;;;;;;7.86;100.00;96028.47;4979690;28;20187;-64
2022/11/26 08:53:28;;;;;;;1999.90;999.90;;;;;;;8.03;100.00;96077.63;4979332;28;20233;-65
2022/11/26 08:56:06;;;;;;;1999.90;999.90;;;;;;;8.04;100.00;96128.16;4978756;28;20233;-63
2022/11/26 08:58:33;;;;;;;1999.90;999.90;;;;;;;8.10;100.00;96164.75;4996136;28;20175;-63
2022/11/26 09:01:07;;;;;;;1999.90;999.90;;;;;;;7.98;100.00;96211.19;4978991;28;20178;-63
2022/11/26 09:03:32;;;;;;;1999.90;999.90;;;;;;;8.05;100.00;96226.84;4979395;28;20179;-63
2022/11/26 09:06:00;;;;;;;1999.90;999.90;;;;;;;8.16;100.00;96250.31;4979374;28;20182;-64
2022/11/26 09:08:26;;;;;;;1999.90;999.90;;;;;;;8.31;100.00;96257.56;4978810;28;20334;-63
2022/11/26 09:10:53;;;;;;;1999.90;999.90;;;;;;;8.73;100.00;96260.88;4978856;28;20200;-63
2022/11/26 09:13:19;;;;;;;1999.90;999.90;;;;;;;9.29;100.00;96291.50;4978625;28;20172;-62
2022/11/26 09:15:44;;;;;;;1999.90;999.90;;;;;;;10.34;100.00;96340.88;4979337;28;20168;-61
2022/11/26 09:18:09;;;;;;;1999.90;999.90;;;;;;;10.89;100.00;96429.13;4979038;28;20204;-61
2022/11/26 09:20:35;;;;;;;1999.90;999.90;;;;;;;10.51;100.00;96481.44;4978751;28;20171;-60
2022/11/26 09:23:00;;;;;;;1999.90;999.90;;;;;;;10.33;100.00;96502.31;4979060;28;20181;-61
2022/11/26 09:25:25;;;;;;;1999.90;999.90;;;;;;;10.06;100.00;96516.06;4978240;28;20186;-60
2022/11/26 09:27:51;;;;;;;1999.90;999.90;;;;;;;9.81;100.00;96536.00;4995576;28;20264;-59
2022/11/26 09:30:17;;;;;;;1999.90;999.90;;;;;;;9.80;100.00;96524.28;4978862;28;20176;-64
2022/11/26 09:32:43;;;;;;;1999.90;999.90;;;;;;;9.58;100.00;96538.03;4978527;28;20182;-63
2022/11/26 09:35:08;;;;;;;1999.90;999.90;;;;;;;9.49;100.00;96534.78;4978818;28;20168;-64
2022/11/26 09:37:33;;;;;;;1999.90;999.90;;;;;;;9.51;100.00;96524.28;4977970;28;20268;-65
2022/11/26 09:39:59;;;;;;;1999.90;999.90;;;;;;;9.26;100.00;96521.19;4978180;28;20176;-64
2022/11/26 09:42:45;;;;;;;1999.90;999.90;;;;;;;9.21;100.00;96518.00;4978278;28;20263;-64
2022/11/26 09:45:28;;;;;;;1999.90;999.90;;;;;;;9.24;100.00;96511.81;4978356;28;20174;-65
2022/11/26 09:47:53;;;;;;;1999.90;999.90;;;;;;;9.35;100.00;96513.56;4978935;28;20192;-63
2022/11/26 09:50:38;;;;;;;1999.90;999.90;;;;;;;9.25;100.00;96506.00;4978191;28;20203;-61
2022/11/26 09:53:26;;;;;;;1999.90;999.90;;;;;;;9.33;100.00;96496.75;4978651;28;20172;-61
2022/11/26 09:55:54;;;;;;;1999.90;999.90;;;;;;;9.27;100.00;96508.34;4977705;28;20220;-61
2022/11/26 09:58:45;;;;;;;1999.90;999.90;;;;;;;9.19;100.00;96510.22;4978015;28;20235;-61
2022/11/26 10:01:26;;;;;;;1999.90;999.90;;;;;;;9.39;100.00;96498.03;4969870;28;20260;-61
2022/11/26 10:03:52;;;;;;;1999.90;999.90;;;;;;;9.52;100.00;96496.66;4977762;28;20218;-60
2022/11/26 10:06:55;;;;;;;1999.90;999.90;;;;;;;9.53;100.00;96509.13;4977997;28;20176;-60
2022/11/26 10:10:00;;;;;;;1999.90;999.90;;;;;;;9.62;100.00;96512.38;4978138;28;20203;-62
2022/11/26 10:12:47;;;;;;;1999.90;999.90;;;;;;;9.55;100.00;96525.91;4977615;28;20266;-62
2022/11/26 10:15:35;;;;;;;1999.90;999.90;;;;;;;9.49;100.00;96523.88;4978343;28;20184;-62
2022/11/26 10:18:31;;;;;;;1999.90;999.90;;;;;;;9.41;100.00;96523.00;4978282;28;20172;-62
2022/11/26 10:21:05;;;;;;;1999.90;999.90;;;;;;;9.36;100.00;96515.13;4978394;28;20266;-64
2022/11/26 10:24:02;;;;;;;1999.90;999.90;;;;;;;9.46;100.00;96503.59;4978694;28;20180;-59
2022/11/26 10:26:38;;;;;;;1999.90;999.90;;;;;;;9.74;100.00;96508.63;4977563;28;20188;-62
2022/11/26 10:29:21;;;;;;;1999.90;999.90;;;;;;;9.92;100.00;96515.88;4977615;28;20290;-64
2022/11/26 10:31:48;;;;;;;1999.90;999.90;;;;;;;10.13;100.00;96521.63;4978296;28;20164;-63
2022/11/26 10:34:24;;;;;;;1999.90;999.90;;;;;;;10.01;100.00;96527.31;4977710;28;20177;-63
2022/11/26 10:36:50;;;;;;;1999.90;999.90;;;;;;;9.80;100.00;96537.16;4978506;28;20196;-62
2022/11/26 10:39:17;;;;;;;1999.90;999.90;;;;;;;9.57;100.00;96530.97;4978347;28;20196;-62
2022/11/26 10:41:44;;;;;;;1999.90;999.90;;;;;;;9.45;100.00;96529.28;4977950;28;20168;-65
2022/11/26 10:44:32;;;;;;;1999.90;999.90;;;;;;;9.26;100.00;96523.16;4980127;28;20175;-67
2022/11/26 10:47:14;;;;;;;1999.90;999.90;;;;;;;9.22;100.00;96519.59;4981145;28;20181;-66
2022/11/26 10:49:40;;;;;;;1999.90;999.90;;;;;;;9.30;100.00;96518.53;4982145;28;20200;-68
2022/11/26 10:52:07;;;;;;;1999.90;999.90;;;;;;;9.33;100.00;96507.66;4981520;28;20282;-67
2022/11/26 10:54:35;;;;;;;1999.90;999.90;;;;;;;9.35;100.00;96497.19;4980739;28;20176;-71
2022/11/26 10:57:11;;;;;;;1999.90;999.90;;;;;;;9.16;100.00;96504.69;4981832;28;20226;-66
2022/11/26 10:59:42;;;;;;;1999.90;999.90;;;;;;;9.03;100.00;96501.38;4981980;28;20538;-62